This is the latest recevied weather packets stored in our database for station/object WB0OCV. If no packets are shown the sender has not sent any weather packets the latest 10 day(s).
| Time | Temp. | Humidity | Pressure | Rain* | Wind** | Luminosity | Snow |
|---|---|---|---|---|---|---|---|
| 1777853861 | 10° C | 47% | 1011.5 hPa | 0 mm | - | 0 W/m² | - |
| 1777853557 | 10° C | 47% | 1011.5 hPa | 0 mm | - | 0 W/m² | - |
| 1777853254 | 10° C | 44% | 1011.1 hPa | 0 mm | - | 0 W/m² | - |
| 1777852951 | 10.56° C | 46% | 1011.1 hPa | 0 mm | - | 0 W/m² | - |
| 1777852649 | 10.56° C | 44% | 1011.2 hPa | 0 mm | - | 0 W/m² | - |
| 1777852346 | 10.56° C | 45% | 1011.1 hPa | 0 mm | - | 1 W/m² | - |
| 1777852044 | 10.56° C | 46% | 1011 hPa | 0 mm | - | 1 W/m² | - |
| 1777851742 | 10.56° C | 45% | 1010.9 hPa | 0 mm | - | 3 W/m² | - |
| 1777851439 | 11.11° C | 43% | 1010.8 hPa | 0 mm | - | 4 W/m² | - |
| 1777851134 | 11.11° C | 44% | 1010.5 hPa | 0 mm | - | 6 W/m² | - |
| 1777850831 | 11.11° C | 43% | 1010.6 hPa | 0 mm | - | 8 W/m² | - |
| 1777850528 | 11.11° C | 44% | 1010.3 hPa | 0 mm | - | 11 W/m² | - |
| 1777850227 | 11.11° C | 44% | 1010.3 hPa | 0 mm | - | 13 W/m² | - |
| 1777849923 | 11.11° C | 44% | 1010.2 hPa | 0 mm | - | 17 W/m² | - |
| 1777849619 | 11.11° C | 45% | 1010 hPa | 0 mm | - | 22 W/m² | - |
| 1777849316 | 11.11° C | 45% | 1009.9 hPa | 0 mm | - | 26 W/m² | - |
| 1777849014 | 11.67° C | 45% | 1009.9 hPa | 0 mm | - | 29 W/m² | - |
| 1777848714 | 11.67° C | 45% | 1009.6 hPa | 0 mm | - | 28 W/m² | - |
| 1777848411 | 11.67° C | 45% | 1009.7 hPa | 0 mm | - | 31 W/m² | - |
| 1777848109 | 11.67° C | 45% | 1009.7 hPa | 0 mm | - | 40 W/m² | - |
| 1777847807 | 11.67° C | 43% | 1009.6 hPa | 0 mm | - | 43 W/m² | - |
| 1777847503 | 11.67° C | 43% | 1009.4 hPa | 0 mm | - | 48 W/m² | - |
| 1777847200 | 11.67° C | 43% | 1009.4 hPa | 0 mm | - | 55 W/m² | - |
| 1777846898 | 11.67° C | 41% | 1009.6 hPa | 0 mm | - | 45 W/m² | - |
| 1777846596 | 11.67° C | 44% | 1009.3 hPa | 0 mm | - | 71 W/m² | - |
* Rain latest hour (hover to see other rain measurements)
** Current wind speed in m/s (hover to see current wind gust speed)